sensor_id;sensor_type;location;lat;lon;timestamp;P1;durP1;ratioP1;P2;durP2;ratioP2
77111;SDS011;66064;50.226;14.344;2023-06-26T00:00:00;9.63;;;7.72;;
77111;SDS011;66064;50.226;14.344;2023-06-26T00:02:26;6.07;;;5.47;;
77111;SDS011;66064;50.226;14.344;2023-06-26T00:04:52;7.20;;;6.63;;
77111;SDS011;66064;50.226;14.344;2023-06-26T00:07:22;8.18;;;7.38;;
77111;SDS011;66064;50.226;14.344;2023-06-26T00:12:13;7.38;;;6.68;;
77111;SDS011;66064;50.226;14.344;2023-06-26T00:14:39;7.70;;;7.03;;
77111;SDS011;66064;50.226;14.344;2023-06-26T00:17:05;12.27;;;5.60;;
77111;SDS011;66064;50.226;14.344;2023-06-26T00:19:31;9.60;;;8.77;;
77111;SDS011;66064;50.226;14.344;2023-06-26T00:21:58;7.50;;;6.78;;
77111;SDS011;66064;50.226;14.344;2023-06-26T00:24:24;8.43;;;6.47;;
77111;SDS011;66064;50.226;14.344;2023-06-26T00:26:50;8.82;;;7.82;;
77111;SDS011;66064;50.226;14.344;2023-06-26T00:29:16;9.27;;;8.18;;
77111;SDS011;66064;50.226;14.344;2023-06-26T00:31:42;9.07;;;5.72;;
77111;SDS011;66064;50.226;14.344;2023-06-26T00:34:08;9.05;;;7.35;;
77111;SDS011;66064;50.226;14.344;2023-06-26T00:36:34;12.05;;;8.73;;
77111;SDS011;66064;50.226;14.344;2023-06-26T00:39:00;8.85;;;8.15;;
77111;SDS011;66064;50.226;14.344;2023-06-26T00:41:26;7.90;;;7.18;;
77111;SDS011;66064;50.226;14.344;2023-06-26T00:43:52;8.57;;;7.88;;
77111;SDS011;66064;50.226;14.344;2023-06-26T00:46:18;9.43;;;6.43;;
77111;SDS011;66064;50.226;14.344;2023-06-26T00:48:45;9.38;;;8.50;;
77111;SDS011;66064;50.226;14.344;2023-06-26T00:51:13;7.40;;;5.63;;
77111;SDS011;66064;50.226;14.344;2023-06-26T00:53:40;7.47;;;5.70;;
77111;SDS011;66064;50.226;14.344;2023-06-26T00:56:07;9.02;;;7.15;;
77111;SDS011;66064;50.226;14.344;2023-06-26T00:58:34;11.02;;;10.13;;
77111;SDS011;66064;50.226;14.344;2023-06-26T01:01:00;7.93;;;7.13;;
77111;SDS011;66064;50.226;14.344;2023-06-26T01:03:27;8.98;;;8.10;;
77111;SDS011;66064;50.226;14.344;2023-06-26T01:05:53;7.30;;;6.78;;
77111;SDS011;66064;50.226;14.344;2023-06-26T01:08:22;8.85;;;7.57;;
77111;SDS011;66064;50.226;14.344;2023-06-26T01:10:48;7.43;;;6.72;;
77111;SDS011;66064;50.226;14.344;2023-06-26T01:13:15;9.60;;;8.70;;
77111;SDS011;66064;50.226;14.344;2023-06-26T01:15:41;9.35;;;8.52;;
77111;SDS011;66064;50.226;14.344;2023-06-26T01:18:08;8.93;;;8.02;;
77111;SDS011;66064;50.226;14.344;2023-06-26T01:20:35;8.88;;;7.57;;
77111;SDS011;66064;50.226;14.344;2023-06-26T01:23:07;9.15;;;8.25;;
77111;SDS011;66064;50.226;14.344;2023-06-26T01:25:37;7.82;;;7.07;;
77111;SDS011;66064;50.226;14.344;2023-06-26T01:28:30;9.90;;;9.18;;
77111;SDS011;66064;50.226;14.344;2023-06-26T01:30:57;6.75;;;5.32;;
77111;SDS011;66064;50.226;14.344;2023-06-26T01:33:25;8.05;;;7.03;;
77111;SDS011;66064;50.226;14.344;2023-06-26T01:35:51;9.15;;;8.35;;
77111;SDS011;66064;50.226;14.344;2023-06-26T01:38:18;9.48;;;6.75;;
77111;SDS011;66064;50.226;14.344;2023-06-26T01:40:46;10.18;;;7.18;;
77111;SDS011;66064;50.226;14.344;2023-06-26T01:43:23;9.50;;;8.65;;
77111;SDS011;66064;50.226;14.344;2023-06-26T01:45:54;8.15;;;7.47;;
77111;SDS011;66064;50.226;14.344;2023-06-26T01:48:29;8.70;;;7.80;;
77111;SDS011;66064;50.226;14.344;2023-06-26T01:50:58;11.02;;;9.30;;
77111;SDS011;66064;50.226;14.344;2023-06-26T01:53:25;10.02;;;7.47;;
77111;SDS011;66064;50.226;14.344;2023-06-26T01:56:03;9.30;;;8.45;;
77111;SDS011;66064;50.226;14.344;2023-06-26T01:58:40;9.95;;;9.02;;
77111;SDS011;66064;50.226;14.344;2023-06-26T02:01:09;9.75;;;8.95;;
77111;SDS011;66064;50.226;14.344;2023-06-26T02:03:35;8.93;;;8.23;;
77111;SDS011;66064;50.226;14.344;2023-06-26T02:06:01;11.60;;;9.20;;
77111;SDS011;66064;50.226;14.344;2023-06-26T02:08:27;9.32;;;8.52;;
77111;SDS011;66064;50.226;14.344;2023-06-26T02:10:53;8.93;;;8.13;;
77111;SDS011;66064;50.226;14.344;2023-06-26T02:13:19;9.48;;;8.73;;
77111;SDS011;66064;50.226;14.344;2023-06-26T02:15:45;9.90;;;7.95;;
77111;SDS011;66064;50.226;14.344;2023-06-26T02:18:11;6.72;;;6.15;;
77111;SDS011;66064;50.226;14.344;2023-06-26T02:20:37;8.90;;;8.00;;
77111;SDS011;66064;50.226;14.344;2023-06-26T02:23:03;8.55;;;7.72;;
77111;SDS011;66064;50.226;14.344;2023-06-26T02:25:29;9.25;;;8.00;;
77111;SDS011;66064;50.226;14.344;2023-06-26T02:27:55;9.90;;;9.07;;
77111;SDS011;66064;50.226;14.344;2023-06-26T02:30:21;8.80;;;8.05;;
77111;SDS011;66064;50.226;14.344;2023-06-26T02:32:47;12.70;;;9.48;;
77111;SDS011;66064;50.226;14.344;2023-06-26T02:35:13;9.23;;;8.35;;
77111;SDS011;66064;50.226;14.344;2023-06-26T02:37:39;10.18;;;9.35;;
77111;SDS011;66064;50.226;14.344;2023-06-26T02:40:05;7.45;;;6.68;;
77111;SDS011;66064;50.226;14.344;2023-06-26T02:42:34;8.93;;;8.13;;
77111;SDS011;66064;50.226;14.344;2023-06-26T02:45:00;8.07;;;7.30;;
77111;SDS011;66064;50.226;14.344;2023-06-26T02:47:26;9.70;;;8.70;;
77111;SDS011;66064;50.226;14.344;2023-06-26T02:49:52;7.60;;;6.93;;
77111;SDS011;66064;50.226;14.344;2023-06-26T02:52:18;8.70;;;7.90;;
77111;SDS011;66064;50.226;14.344;2023-06-26T02:54:45;7.78;;;6.25;;
77111;SDS011;66064;50.226;14.344;2023-06-26T02:57:11;9.32;;;8.52;;
77111;SDS011;66064;50.226;14.344;2023-06-26T02:59:38;9.57;;;8.40;;
77111;SDS011;66064;50.226;14.344;2023-06-26T03:02:05;11.82;;;8.80;;
77111;SDS011;66064;50.226;14.344;2023-06-26T03:04:31;9.77;;;8.98;;
77111;SDS011;66064;50.226;14.344;2023-06-26T03:06:57;9.48;;;8.68;;
77111;SDS011;66064;50.226;14.344;2023-06-26T03:09:23;8.15;;;7.55;;
77111;SDS011;66064;50.226;14.344;2023-06-26T03:11:49;8.85;;;8.10;;
77111;SDS011;66064;50.226;14.344;2023-06-26T03:14:15;10.18;;;9.38;;
77111;SDS011;66064;50.226;14.344;2023-06-26T03:16:41;8.15;;;7.50;;
77111;SDS011;66064;50.226;14.344;2023-06-26T03:19:07;7.10;;;6.40;;
77111;SDS011;66064;50.226;14.344;2023-06-26T03:21:33;7.93;;;7.15;;
77111;SDS011;66064;50.226;14.344;2023-06-26T03:23:59;6.70;;;5.28;;
77111;SDS011;66064;50.226;14.344;2023-06-26T03:26:25;9.02;;;8.27;;
77111;SDS011;66064;50.226;14.344;2023-06-26T03:28:53;8.85;;;8.13;;
77111;SDS011;66064;50.226;14.344;2023-06-26T03:31:20;9.40;;;8.60;;
77111;SDS011;66064;50.226;14.344;2023-06-26T03:33:46;13.85;;;9.60;;
77111;SDS011;66064;50.226;14.344;2023-06-26T03:36:12;9.88;;;9.13;;
77111;SDS011;66064;50.226;14.344;2023-06-26T03:38:38;13.52;;;9.13;;
77111;SDS011;66064;50.226;14.344;2023-06-26T03:41:04;7.20;;;6.50;;
77111;SDS011;66064;50.226;14.344;2023-06-26T03:43:30;15.45;;;8.70;;
77111;SDS011;66064;50.226;14.344;2023-06-26T03:45:56;9.82;;;9.07;;
77111;SDS011;66064;50.226;14.344;2023-06-26T03:48:22;8.48;;;7.82;;
77111;SDS011;66064;50.226;14.344;2023-06-26T03:50:48;11.13;;;10.20;;
77111;SDS011;66064;50.226;14.344;2023-06-26T03:53:14;8.13;;;6.65;;
77111;SDS011;66064;50.226;14.344;2023-06-26T03:55:40;8.68;;;8.05;;
77111;SDS011;66064;50.226;14.344;2023-06-26T03:58:06;10.95;;;10.05;;
77111;SDS011;66064;50.226;14.344;2023-06-26T04:00:32;7.85;;;6.97;;
77111;SDS011;66064;50.226;14.344;2023-06-26T04:02:58;9.70;;;8.85;;
77111;SDS011;66064;50.226;14.344;2023-06-26T04:05:24;9.73;;;8.85;;
77111;SDS011;66064;50.226;14.344;2023-06-26T04:07:51;11.80;;;10.57;;
77111;SDS011;66064;50.226;14.344;2023-06-26T04:10:17;7.65;;;7.05;;
77111;SDS011;66064;50.226;14.344;2023-06-26T04:12:43;8.15;;;7.38;;
77111;SDS011;66064;50.226;14.344;2023-06-26T04:15:09;11.00;;;9.98;;
77111;SDS011;66064;50.226;14.344;2023-06-26T04:17:36;8.30;;;7.60;;
77111;SDS011;66064;50.226;14.344;2023-06-26T04:20:02;9.65;;;8.68;;
77111;SDS011;66064;50.226;14.344;2023-06-26T04:22:32;8.93;;;8.13;;
77111;SDS011;66064;50.226;14.344;2023-06-26T04:25:01;10.85;;;8.18;;
77111;SDS011;66064;50.226;14.344;2023-06-26T04:27:28;10.95;;;8.52;;
77111;SDS011;66064;50.226;14.344;2023-06-26T04:29:55;9.90;;;7.68;;
77111;SDS011;66064;50.226;14.344;2023-06-26T04:32:21;11.02;;;8.32;;
77111;SDS011;66064;50.226;14.344;2023-06-26T04:34:49;10.10;;;7.32;;
77111;SDS011;66064;50.226;14.344;2023-06-26T04:37:15;7.65;;;6.88;;
77111;SDS011;66064;50.226;14.344;2023-06-26T04:42:09;7.30;;;5.93;;
77111;SDS011;66064;50.226;14.344;2023-06-26T04:44:37;8.38;;;7.18;;
77111;SDS011;66064;50.226;14.344;2023-06-26T04:47:03;8.20;;;7.40;;
77111;SDS011;66064;50.226;14.344;2023-06-26T04:49:30;7.72;;;6.85;;
77111;SDS011;66064;50.226;14.344;2023-06-26T04:51:56;7.45;;;6.85;;
77111;SDS011;66064;50.226;14.344;2023-06-26T04:54:24;10.60;;;7.85;;
77111;SDS011;66064;50.226;14.344;2023-06-26T04:56:50;8.63;;;7.20;;
77111;SDS011;66064;50.226;14.344;2023-06-26T04:59:16;8.18;;;7.22;;
77111;SDS011;66064;50.226;14.344;2023-06-26T05:01:42;8.23;;;6.10;;
77111;SDS011;66064;50.226;14.344;2023-06-26T05:04:13;10.25;;;6.15;;
77111;SDS011;66064;50.226;14.344;2023-06-26T05:06:40;7.47;;;6.22;;
77111;SDS011;66064;50.226;14.344;2023-06-26T05:09:07;7.32;;;6.20;;
77111;SDS011;66064;50.226;14.344;2023-06-26T05:11:32;9.70;;;5.72;;
77111;SDS011;66064;50.226;14.344;2023-06-26T05:13:59;8.45;;;6.20;;
77111;SDS011;66064;50.226;14.344;2023-06-26T05:16:24;7.07;;;5.97;;
77111;SDS011;66064;50.226;14.344;2023-06-26T05:18:50;7.03;;;6.28;;
77111;SDS011;66064;50.226;14.344;2023-06-26T05:21:17;6.93;;;5.07;;
77111;SDS011;66064;50.226;14.344;2023-06-26T05:23:43;7.82;;;5.85;;
77111;SDS011;66064;50.226;14.344;2023-06-26T05:26:11;7.28;;;4.60;;
77111;SDS011;66064;50.226;14.344;2023-06-26T05:28:39;5.90;;;5.00;;
77111;SDS011;66064;50.226;14.344;2023-06-26T05:31:05;7.70;;;5.50;;
77111;SDS011;66064;50.226;14.344;2023-06-26T05:33:31;6.45;;;4.47;;
77111;SDS011;66064;50.226;14.344;2023-06-26T05:36:02;7.15;;;4.97;;
77111;SDS011;66064;50.226;14.344;2023-06-26T05:38:29;7.20;;;5.72;;
77111;SDS011;66064;50.226;14.344;2023-06-26T05:40:56;5.75;;;4.43;;
77111;SDS011;66064;50.226;14.344;2023-06-26T05:43:22;7.65;;;4.97;;
77111;SDS011;66064;50.226;14.344;2023-06-26T05:45:48;7.40;;;4.93;;
77111;SDS011;66064;50.226;14.344;2023-06-26T05:48:14;7.38;;;4.70;;
77111;SDS011;66064;50.226;14.344;2023-06-26T05:50:41;6.00;;;4.60;;
77111;SDS011;66064;50.226;14.344;2023-06-26T05:53:08;7.18;;;5.28;;
77111;SDS011;66064;50.226;14.344;2023-06-26T05:55:34;7.18;;;4.70;;
77111;SDS011;66064;50.226;14.344;2023-06-26T05:58:02;7.22;;;4.20;;
77111;SDS011;66064;50.226;14.344;2023-06-26T06:00:28;6.53;;;4.55;;
77111;SDS011;66064;50.226;14.344;2023-06-26T06:02:55;6.40;;;4.55;;
77111;SDS011;66064;50.226;14.344;2023-06-26T06:05:21;8.27;;;5.20;;
77111;SDS011;66064;50.226;14.344;2023-06-26T06:07:48;7.82;;;4.53;;
77111;SDS011;66064;50.226;14.344;2023-06-26T06:10:14;7.40;;;4.07;;
77111;SDS011;66064;50.226;14.344;2023-06-26T06:12:41;5.32;;;3.83;;
77111;SDS011;66064;50.226;14.344;2023-06-26T06:15:07;5.40;;;4.20;;
77111;SDS011;66064;50.226;14.344;2023-06-26T06:17:33;4.75;;;3.25;;
77111;SDS011;66064;50.226;14.344;2023-06-26T06:19:59;4.90;;;3.15;;
77111;SDS011;66064;50.226;14.344;2023-06-26T06:22:25;5.35;;;3.78;;
77111;SDS011;66064;50.226;14.344;2023-06-26T06:24:51;5.70;;;4.13;;
77111;SDS011;66064;50.226;14.344;2023-06-26T06:27:18;7.10;;;3.75;;
77111;SDS011;66064;50.226;14.344;2023-06-26T06:29:44;6.07;;;4.22;;
77111;SDS011;66064;50.226;14.344;2023-06-26T06:32:10;5.50;;;3.65;;
77111;SDS011;66064;50.226;14.344;2023-06-26T06:34:36;4.60;;;3.47;;
77111;SDS011;66064;50.226;14.344;2023-06-26T06:37:02;5.50;;;3.53;;
77111;SDS011;66064;50.226;14.344;2023-06-26T06:39:28;5.18;;;3.88;;
77111;SDS011;66064;50.226;14.344;2023-06-26T06:41:55;6.43;;;4.15;;
77111;SDS011;66064;50.226;14.344;2023-06-26T06:44:20;7.47;;;4.15;;
77111;SDS011;66064;50.226;14.344;2023-06-26T06:46:48;6.68;;;4.13;;
77111;SDS011;66064;50.226;14.344;2023-06-26T06:49:14;7.55;;;4.95;;
77111;SDS011;66064;50.226;14.344;2023-06-26T06:51:40;5.38;;;4.20;;
77111;SDS011;66064;50.226;14.344;2023-06-26T06:54:06;6.07;;;4.20;;
77111;SDS011;66064;50.226;14.344;2023-06-26T06:56:32;6.50;;;4.47;;
77111;SDS011;66064;50.226;14.344;2023-06-26T06:58:57;4.80;;;3.70;;
77111;SDS011;66064;50.226;14.344;2023-06-26T07:01:24;5.03;;;3.67;;
77111;SDS011;66064;50.226;14.344;2023-06-26T07:03:50;4.95;;;3.38;;
77111;SDS011;66064;50.226;14.344;2023-06-26T07:06:16;6.50;;;3.92;;
77111;SDS011;66064;50.226;14.344;2023-06-26T07:08:42;7.72;;;3.70;;
77111;SDS011;66064;50.226;14.344;2023-06-26T07:11:08;6.82;;;4.22;;
77111;SDS011;66064;50.226;14.344;2023-06-26T07:13:34;5.75;;;3.80;;
77111;SDS011;66064;50.226;14.344;2023-06-26T07:16:00;4.95;;;3.45;;
77111;SDS011;66064;50.226;14.344;2023-06-26T07:18:25;5.72;;;3.83;;
77111;SDS011;66064;50.226;14.344;2023-06-26T07:20:52;7.05;;;3.88;;
77111;SDS011;66064;50.226;14.344;2023-06-26T07:23:17;7.50;;;3.67;;
77111;SDS011;66064;50.226;14.344;2023-06-26T07:25:44;4.68;;;3.35;;
77111;SDS011;66064;50.226;14.344;2023-06-26T07:28:10;6.43;;;3.53;;
77111;SDS011;66064;50.226;14.344;2023-06-26T07:30:37;5.32;;;3.45;;
77111;SDS011;66064;50.226;14.344;2023-06-26T07:33:03;4.97;;;3.35;;
77111;SDS011;66064;50.226;14.344;2023-06-26T07:35:29;4.55;;;3.00;;
77111;SDS011;66064;50.226;14.344;2023-06-26T07:37:55;4.80;;;2.90;;
77111;SDS011;66064;50.226;14.344;2023-06-26T07:40:21;3.88;;;2.58;;
77111;SDS011;66064;50.226;14.344;2023-06-26T07:42:47;3.72;;;2.47;;
77111;SDS011;66064;50.226;14.344;2023-06-26T07:45:14;4.88;;;2.80;;
77111;SDS011;66064;50.226;14.344;2023-06-26T07:47:39;4.00;;;2.70;;
77111;SDS011;66064;50.226;14.344;2023-06-26T07:50:06;4.43;;;2.88;;
77111;SDS011;66064;50.226;14.344;2023-06-26T07:52:32;4.43;;;3.03;;
77111;SDS011;66064;50.226;14.344;2023-06-26T07:54:59;4.10;;;2.80;;
77111;SDS011;66064;50.226;14.344;2023-06-26T07:57:26;3.15;;;2.15;;
77111;SDS011;66064;50.226;14.344;2023-06-26T07:59:53;4.25;;;2.25;;
77111;SDS011;66064;50.226;14.344;2023-06-26T08:02:19;5.90;;;2.75;;
77111;SDS011;66064;50.226;14.344;2023-06-26T08:04:45;3.45;;;2.55;;
77111;SDS011;66064;50.226;14.344;2023-06-26T08:07:11;5.82;;;2.63;;
77111;SDS011;66064;50.226;14.344;2023-06-26T08:09:37;3.50;;;2.50;;
77111;SDS011;66064;50.226;14.344;2023-06-26T08:12:03;3.85;;;2.50;;
77111;SDS011;66064;50.226;14.344;2023-06-26T08:14:29;4.63;;;2.22;;
77111;SDS011;66064;50.226;14.344;2023-06-26T08:16:56;3.67;;;2.30;;
77111;SDS011;66064;50.226;14.344;2023-06-26T08:19:25;4.25;;;2.65;;
77111;SDS011;66064;50.226;14.344;2023-06-26T08:21:51;5.25;;;2.58;;
77111;SDS011;66064;50.226;14.344;2023-06-26T08:24:17;3.40;;;2.08;;
77111;SDS011;66064;50.226;14.344;2023-06-26T08:26:44;4.47;;;2.50;;
77111;SDS011;66064;50.226;14.344;2023-06-26T08:29:12;3.85;;;2.38;;
77111;SDS011;66064;50.226;14.344;2023-06-26T08:31:39;3.58;;;2.17;;
77111;SDS011;66064;50.226;14.344;2023-06-26T08:36:32;3.92;;;2.03;;
77111;SDS011;66064;50.226;14.344;2023-06-26T08:38:58;4.63;;;2.50;;
77111;SDS011;66064;50.226;14.344;2023-06-26T08:41:24;3.83;;;2.15;;
77111;SDS011;66064;50.226;14.344;2023-06-26T08:43:50;3.85;;;2.25;;
77111;SDS011;66064;50.226;14.344;2023-06-26T08:46:18;4.90;;;2.40;;
77111;SDS011;66064;50.226;14.344;2023-06-26T08:48:54;3.85;;;2.22;;
77111;SDS011;66064;50.226;14.344;2023-06-26T08:51:21;3.70;;;2.33;;
77111;SDS011;66064;50.226;14.344;2023-06-26T08:54:00;3.80;;;2.40;;
77111;SDS011;66064;50.226;14.344;2023-06-26T08:56:49;3.60;;;2.45;;
77111;SDS011;66064;50.226;14.344;2023-06-26T08:59:15;4.88;;;2.60;;
77111;SDS011;66064;50.226;14.344;2023-06-26T09:01:42;3.28;;;2.08;;
77111;SDS011;66064;50.226;14.344;2023-06-26T09:04:08;5.40;;;2.50;;
77111;SDS011;66064;50.226;14.344;2023-06-26T09:06:34;3.35;;;2.00;;
77111;SDS011;66064;50.226;14.344;2023-06-26T09:09:01;4.55;;;2.28;;
77111;SDS011;66064;50.226;14.344;2023-06-26T09:11:28;4.45;;;2.47;;
77111;SDS011;66064;50.226;14.344;2023-06-26T09:13:55;4.43;;;2.30;;
77111;SDS011;66064;50.226;14.344;2023-06-26T09:16:24;4.43;;;2.65;;
77111;SDS011;66064;50.226;14.344;2023-06-26T09:18:52;3.97;;;2.60;;
77111;SDS011;66064;50.226;14.344;2023-06-26T09:21:18;3.72;;;2.30;;
77111;SDS011;66064;50.226;14.344;2023-06-26T09:23:44;3.70;;;2.38;;
77111;SDS011;66064;50.226;14.344;2023-06-26T09:26:11;4.20;;;2.40;;
77111;SDS011;66064;50.226;14.344;2023-06-26T09:28:37;3.67;;;2.28;;
77111;SDS011;66064;50.226;14.344;2023-06-26T09:31:04;4.88;;;2.38;;
77111;SDS011;66064;50.226;14.344;2023-06-26T09:33:35;3.67;;;2.22;;
77111;SDS011;66064;50.226;14.344;2023-06-26T09:36:05;3.90;;;2.45;;
77111;SDS011;66064;50.226;14.344;2023-06-26T09:38:44;4.05;;;2.38;;
77111;SDS011;66064;50.226;14.344;2023-06-26T09:41:10;3.20;;;2.03;;
77111;SDS011;66064;50.226;14.344;2023-06-26T09:43:46;4.32;;;2.55;;
77111;SDS011;66064;50.226;14.344;2023-06-26T09:46:25;4.50;;;2.60;;
77111;SDS011;66064;50.226;14.344;2023-06-26T09:49:00;5.05;;;2.20;;
77111;SDS011;66064;50.226;14.344;2023-06-26T09:51:29;4.18;;;2.60;;
77111;SDS011;66064;50.226;14.344;2023-06-26T09:54:02;4.13;;;2.53;;
77111;SDS011;66064;50.226;14.344;2023-06-26T09:56:29;3.70;;;2.10;;
77111;SDS011;66064;50.226;14.344;2023-06-26T09:58:57;4.82;;;2.65;;
77111;SDS011;66064;50.226;14.344;2023-06-26T10:01:24;3.70;;;2.58;;
77111;SDS011;66064;50.226;14.344;2023-06-26T10:03:51;4.13;;;2.67;;
77111;SDS011;66064;50.226;14.344;2023-06-26T10:06:27;3.33;;;2.08;;
77111;SDS011;66064;50.226;14.344;2023-06-26T10:08:59;4.03;;;2.35;;
77111;SDS011;66064;50.226;14.344;2023-06-26T10:13:56;3.63;;;2.45;;
77111;SDS011;66064;50.226;14.344;2023-06-26T10:16:23;5.03;;;2.63;;
77111;SDS011;66064;50.226;14.344;2023-06-26T10:18:55;4.05;;;2.40;;
77111;SDS011;66064;50.226;14.344;2023-06-26T10:21:24;3.55;;;2.38;;
77111;SDS011;66064;50.226;14.344;2023-06-26T10:23:55;4.22;;;2.90;;
77111;SDS011;66064;50.226;14.344;2023-06-26T10:26:22;3.90;;;2.60;;
77111;SDS011;66064;50.226;14.344;2023-06-26T10:28:50;4.32;;;2.70;;
77111;SDS011;66064;50.226;14.344;2023-06-26T10:31:20;4.10;;;2.72;;
77111;SDS011;66064;50.226;14.344;2023-06-26T10:33:49;3.50;;;2.33;;
77111;SDS011;66064;50.226;14.344;2023-06-26T10:36:19;4.72;;;2.20;;
77111;SDS011;66064;50.226;14.344;2023-06-26T10:38:53;3.47;;;2.22;;
77111;SDS011;66064;50.226;14.344;2023-06-26T10:41:21;4.13;;;2.60;;
77111;SDS011;66064;50.226;14.344;2023-06-26T10:43:50;4.30;;;2.35;;
77111;SDS011;66064;50.226;14.344;2023-06-26T10:46:28;4.88;;;2.28;;
77111;SDS011;66064;50.226;14.344;2023-06-26T10:49:00;4.10;;;2.60;;
77111;SDS011;66064;50.226;14.344;2023-06-26T10:53:54;4.32;;;2.53;;
77111;SDS011;66064;50.226;14.344;2023-06-26T10:56:21;4.22;;;2.72;;
77111;SDS011;66064;50.226;14.344;2023-06-26T10:59:14;3.60;;;2.70;;
77111;SDS011;66064;50.226;14.344;2023-06-26T11:01:42;3.97;;;2.80;;
77111;SDS011;66064;50.226;14.344;2023-06-26T11:04:13;5.03;;;3.00;;
77111;SDS011;66064;50.226;14.344;2023-06-26T11:06:44;5.22;;;2.90;;
77111;SDS011;66064;50.226;14.344;2023-06-26T11:09:13;4.57;;;2.90;;
77111;SDS011;66064;50.226;14.344;2023-06-26T11:14:25;6.20;;;3.05;;
77111;SDS011;66064;50.226;14.344;2023-06-26T11:16:52;4.35;;;2.85;;
77111;SDS011;66064;50.226;14.344;2023-06-26T11:19:22;5.72;;;2.78;;
77111;SDS011;66064;50.226;14.344;2023-06-26T11:21:48;3.78;;;2.60;;
77111;SDS011;66064;50.226;14.344;2023-06-26T11:24:15;4.10;;;2.83;;
77111;SDS011;66064;50.226;14.344;2023-06-26T11:26:42;3.95;;;2.95;;
77111;SDS011;66064;50.226;14.344;2023-06-26T11:29:10;4.43;;;2.70;;
77111;SDS011;66064;50.226;14.344;2023-06-26T11:31:37;6.25;;;3.40;;
77111;SDS011;66064;50.226;14.344;2023-06-26T11:34:05;3.95;;;2.70;;
77111;SDS011;66064;50.226;14.344;2023-06-26T11:36:40;4.50;;;2.60;;
77111;SDS011;66064;50.226;14.344;2023-06-26T11:39:08;3.92;;;2.72;;
77111;SDS011;66064;50.226;14.344;2023-06-26T11:41:37;3.83;;;2.80;;
77111;SDS011;66064;50.226;14.344;2023-06-26T11:44:05;4.43;;;3.10;;
77111;SDS011;66064;50.226;14.344;2023-06-26T11:46:36;4.88;;;2.67;;
77111;SDS011;66064;50.226;14.344;2023-06-26T11:49:03;4.68;;;2.85;;
77111;SDS011;66064;50.226;14.344;2023-06-26T11:51:30;4.88;;;2.80;;
77111;SDS011;66064;50.226;14.344;2023-06-26T11:53:56;5.20;;;2.50;;
77111;SDS011;66064;50.226;14.344;2023-06-26T11:56:21;4.47;;;2.92;;
77111;SDS011;66064;50.226;14.344;2023-06-26T12:01:37;3.50;;;2.53;;
77111;SDS011;66064;50.226;14.344;2023-06-26T12:04:04;4.47;;;2.80;;
77111;SDS011;66064;50.226;14.344;2023-06-26T12:06:36;4.22;;;3.13;;
77111;SDS011;66064;50.226;14.344;2023-06-26T12:09:07;3.65;;;2.72;;
77111;SDS011;66064;50.226;14.344;2023-06-26T12:11:36;5.40;;;3.13;;
77111;SDS011;66064;50.226;14.344;2023-06-26T12:14:05;5.85;;;2.97;;
77111;SDS011;66064;50.226;14.344;2023-06-26T12:16:33;4.35;;;2.95;;
77111;SDS011;66064;50.226;14.344;2023-06-26T12:19:04;4.85;;;3.50;;
77111;SDS011;66064;50.226;14.344;2023-06-26T12:24:03;4.20;;;2.95;;
77111;SDS011;66064;50.226;14.344;2023-06-26T12:26:32;3.35;;;2.85;;
77111;SDS011;66064;50.226;14.344;2023-06-26T12:29:02;5.80;;;3.83;;
77111;SDS011;66064;50.226;14.344;2023-06-26T12:31:33;4.47;;;3.17;;
77111;SDS011;66064;50.226;14.344;2023-06-26T12:34:00;3.55;;;2.50;;
77111;SDS011;66064;50.226;14.344;2023-06-26T12:36:26;4.65;;;3.05;;
77111;SDS011;66064;50.226;14.344;2023-06-26T12:38:53;4.80;;;3.42;;
77111;SDS011;66064;50.226;14.344;2023-06-26T12:41:20;4.88;;;2.92;;
77111;SDS011;66064;50.226;14.344;2023-06-26T12:43:49;4.05;;;2.72;;
77111;SDS011;66064;50.226;14.344;2023-06-26T12:46:21;3.90;;;2.50;;
77111;SDS011;66064;50.226;14.344;2023-06-26T12:48:59;4.65;;;3.33;;
77111;SDS011;66064;50.226;14.344;2023-06-26T12:51:25;4.70;;;3.17;;
77111;SDS011;66064;50.226;14.344;2023-06-26T12:56:18;4.88;;;3.40;;
77111;SDS011;66064;50.226;14.344;2023-06-26T12:58:45;4.15;;;3.00;;
77111;SDS011;66064;50.226;14.344;2023-06-26T13:01:11;4.05;;;2.80;;
77111;SDS011;66064;50.226;14.344;2023-06-26T13:03:39;4.28;;;3.22;;
77111;SDS011;66064;50.226;14.344;2023-06-26T13:06:08;5.28;;;3.78;;
77111;SDS011;66064;50.226;14.344;2023-06-26T13:08:34;4.47;;;3.03;;
77111;SDS011;66064;50.226;14.344;2023-06-26T13:11:00;3.60;;;2.83;;
77111;SDS011;66064;50.226;14.344;2023-06-26T13:13:26;5.47;;;3.40;;
77111;SDS011;66064;50.226;14.344;2023-06-26T13:15:52;6.05;;;3.55;;
77111;SDS011;66064;50.226;14.344;2023-06-26T13:18:19;5.72;;;3.92;;
77111;SDS011;66064;50.226;14.344;2023-06-26T13:20:45;5.10;;;3.45;;
77111;SDS011;66064;50.226;14.344;2023-06-26T13:23:12;5.20;;;3.13;;
77111;SDS011;66064;50.226;14.344;2023-06-26T13:25:38;5.53;;;3.65;;
77111;SDS011;66064;50.226;14.344;2023-06-26T13:28:04;4.32;;;3.17;;
77111;SDS011;66064;50.226;14.344;2023-06-26T13:30:30;5.40;;;3.80;;
77111;SDS011;66064;50.226;14.344;2023-06-26T13:32:56;6.63;;;4.38;;
77111;SDS011;66064;50.226;14.344;2023-06-26T13:35:22;5.47;;;3.58;;
77111;SDS011;66064;50.226;14.344;2023-06-26T13:37:48;5.28;;;3.80;;
77111;SDS011;66064;50.226;14.344;2023-06-26T13:40:14;4.60;;;3.35;;
77111;SDS011;66064;50.226;14.344;2023-06-26T13:42:40;5.28;;;3.63;;
77111;SDS011;66064;50.226;14.344;2023-06-26T13:45:07;6.05;;;3.83;;
77111;SDS011;66064;50.226;14.344;2023-06-26T13:47:43;7.30;;;4.25;;
77111;SDS011;66064;50.226;14.344;2023-06-26T13:50:09;4.97;;;3.38;;
77111;SDS011;66064;50.226;14.344;2023-06-26T13:52:35;4.75;;;3.40;;
77111;SDS011;66064;50.226;14.344;2023-06-26T13:55:01;5.40;;;3.33;;
77111;SDS011;66064;50.226;14.344;2023-06-26T13:57:31;4.75;;;3.47;;
77111;SDS011;66064;50.226;14.344;2023-06-26T13:59:57;5.30;;;3.58;;
77111;SDS011;66064;50.226;14.344;2023-06-26T14:02:23;5.53;;;3.75;;
77111;SDS011;66064;50.226;14.344;2023-06-26T14:04:49;6.80;;;4.13;;
77111;SDS011;66064;50.226;14.344;2023-06-26T14:07:15;4.53;;;3.00;;
77111;SDS011;66064;50.226;14.344;2023-06-26T14:09:41;5.32;;;3.35;;
77111;SDS011;66064;50.226;14.344;2023-06-26T14:12:07;5.03;;;2.95;;
77111;SDS011;66064;50.226;14.344;2023-06-26T14:14:33;4.95;;;3.33;;
77111;SDS011;66064;50.226;14.344;2023-06-26T14:17:00;4.93;;;3.20;;
77111;SDS011;66064;50.226;14.344;2023-06-26T14:19:25;4.75;;;3.20;;
77111;SDS011;66064;50.226;14.344;2023-06-26T14:21:52;4.53;;;3.20;;
77111;SDS011;66064;50.226;14.344;2023-06-26T14:24:18;4.68;;;3.17;;
77111;SDS011;66064;50.226;14.344;2023-06-26T14:26:44;3.42;;;2.47;;
77111;SDS011;66064;50.226;14.344;2023-06-26T14:29:09;4.40;;;3.30;;
77111;SDS011;66064;50.226;14.344;2023-06-26T14:31:35;4.28;;;3.00;;
77111;SDS011;66064;50.226;14.344;2023-06-26T14:34:01;5.47;;;3.60;;
77111;SDS011;66064;50.226;14.344;2023-06-26T14:36:28;4.63;;;2.83;;
77111;SDS011;66064;50.226;14.344;2023-06-26T14:38:57;7.00;;;3.38;;
77111;SDS011;66064;50.226;14.344;2023-06-26T14:41:24;5.28;;;3.55;;
77111;SDS011;66064;50.226;14.344;2023-06-26T14:43:50;4.88;;;3.25;;
77111;SDS011;66064;50.226;14.344;2023-06-26T14:46:16;4.57;;;3.20;;
77111;SDS011;66064;50.226;14.344;2023-06-26T14:48:42;4.50;;;2.90;;
77111;SDS011;66064;50.226;14.344;2023-06-26T14:51:08;4.95;;;3.50;;
77111;SDS011;66064;50.226;14.344;2023-06-26T14:53:34;6.72;;;3.42;;
77111;SDS011;66064;50.226;14.344;2023-06-26T14:56:00;7.40;;;3.75;;